Galata, Montana
Current Conditions -  °F | °C
As of 3:56 PM on Saturday 25 Oct 2014 (Local Time) from KCTB Reporting Station
Clear Clear  
Wind Chill: 53°   Ceiling: Unl
Heat Index: 53°   Visibility: 10mi
Dew Point: 39°   Wind: 12mph
Humidity: 59%   Direction: 140°SE
Pressure: 29.73"   Gusts: NA
Location:  48.48°N, 111.35°W
Report Text: KCTB 252156Z AUTO 14010KT 10SM CLR 12/04 A2973 RMK AO2 SLP065 T01170039
Loading
Personal Weather Stations






























Interactive Weather Map
Tropical Storm Tracking
New forecast layout! Learn more

10-Day Weather Forecast

Advertisements
Track Severe Weather on mobile